< Typhoon 196527 1965 Season Typhoon 196529 >
Typhoon 196528 (BESS)
General InformationTrack Information on Google Maps || Disaster Info.ResourceGoogle EarthGE AnimationAtom FeedGeoJSON
Detalied Best Track (Time Zone = UTC)
Year Month Day Hour Lat. Long. Pressure (hPa) Wind (kt) Class Image Chart
1965 9 25 12 7.8 156.2 1008 0 2 -- Chart
1965 9 25 18 9.0 154.9 1006 0 2 -- Chart
1965 9 26 00 10.7 154.5 1004 0 2 -- Chart
1965 9 26 06 12.2 153.7 1002 0 2 -- Chart
1965 9 26 12 13.5 153.0 1000 0 2 -- Chart
1965 9 26 18 14.9 151.9 998 0 2 -- Chart
1965 9 27 00 15.3 150.3 996 0 9 -- Chart
1965 9 27 06 15.3 148.8 996 0 9 -- Chart
1965 9 27 12 15.3 147.5 994 0 9 -- Chart
1965 9 27 18 15.3 146.5 990 0 9 -- Chart
1965 9 28 00 15.6 145.6 985 0 9 -- Chart
1965 9 28 06 16.0 145.0 980 0 9 -- Chart
1965 9 28 12 16.5 144.5 975 0 9 -- Chart
1965 9 28 18 17.0 144.0 970 0 9 -- Chart
1965 9 29 00 17.5 143.6 965 0 9 -- Chart
1965 9 29 06 18.0 143.5 960 0 9 -- Chart
1965 9 29 12 18.8 143.5 950 0 9 -- Chart
1965 9 29 18 19.5 143.5 940 0 9 -- Chart
1965 9 30 00 20.3 143.5 925 0 9 -- Chart
1965 9 30 06 21.0 143.5 900 0 9 -- Chart
1965 9 30 12 21.5 143.5 900 0 9 -- Chart
1965 9 30 18 22.1 143.5 910 0 9 -- Chart
1965 10 1 00 23.4 143.9 915 0 9 -- Chart
1965 10 1 06 24.5 144.2 925 0 9 -- Chart
1965 10 1 12 25.8 144.1 930 0 9 -- Chart
1965 10 1 18 26.8 143.9 934 0 9 -- Chart
1965 10 2 00 27.9 143.5 940 0 9 -- Chart
1965 10 2 06 29.2 143.1 952 0 9 -- Chart
1965 10 2 12 30.3 143.5 956 0 9 -- Chart
1965 10 2 18 31.3 144.2 960 0 9 -- Chart
1965 10 3 00 31.9 145.2 962 0 9 -- Chart
1965 10 3 06 32.5 146.4 964 0 9 -- Chart
1965 10 3 12 33.3 147.2 966 0 9 -- Chart
1965 10 3 18 34.2 148.0 968 0 9 -- Chart
1965 10 4 00 35.2 148.5 968 0 9 -- Chart
1965 10 4 06 36.2 149.0 970 0 9 -- Chart
1965 10 4 12 37.5 149.5 970 0 9 -- Chart
1965 10 4 18 38.8 150.5 970 0 9 -- Chart
1965 10 5 00 39.3 151.0 970 0 9 -- Chart
1965 10 5 06 40.3 151.5 976 0 6 -- Chart
1965 10 5 12 42.0 153.0 978 0 6 -- Chart
1965 10 5 18 44.0 154.0 982 0 6 -- Chart
1965 10 6 00 45.5 155.5 988 0 6 -- Chart
1965 10 6 06 48.0 156.0 990 0 6 -- Chart
1965 10 6 12 50.5 157.0 1000 0 6 -- Chart
1965 10 6 18 52.0 163.0 1002 0 6 -- Chart
1965 10 7 00 53.0 168.0 1002 0 6 -- Chart
1965 10 7 06 53.5 171.3 996 0 6 -- Chart
1965 10 7 12 54.3 174.5 994 0 6 -- Chart
1965 10 7 18 56.0 178.0 990 0 6 -- Chart
1965 10 8 00 56.0 180.0 990 0 6 -- Chart
1965 10 8 06 56.0 182.5 990 0 6 -- Chart
Japan Meteorological Agency Best Track Data | Correction Date : 1991-07-17
< Typhoon 196527 1965 Season Typhoon 196529 >

Help